Time;durP1;ratioP1;P1;durP2;ratioP2;P2;SDS_P1;SDS_P2;PMS_P1;PMS_P2;Temp;Humidity;BMP_temperature;BMP_pressure;BME280_temperature;BME280_humidity;BME280_pressure;Samples;Min_cycle;Max_cycle;Signal;HPM_P1;HPM_P2
2023/06/29 00:01:54;;;;;;;5.13;4.30;;;;;;;17.14;81.48;98230.44;5031640;28;20204;-73
2023/06/29 00:04:25;;;;;;;4.50;3.80;;;;;;;17.13;82.10;98231.41;5031610;28;20247;-73
2023/06/29 00:06:52;;;;;;;5.17;4.30;;;;;;;17.10;82.05;98229.06;5031548;28;20217;-73
2023/06/29 00:09:19;;;;;;;4.73;4.20;;;;;;;17.05;82.46;98223.28;5031102;28;20606;-73
2023/06/29 00:11:46;;;;;;;5.47;4.50;;;;;;;16.99;83.06;98226.53;5031106;28;20217;-74
2023/06/29 00:14:12;;;;;;;4.87;4.37;;;;;;;16.95;83.17;98222.47;5031447;28;20213;-74
2023/06/29 00:16:39;;;;;;;4.47;4.07;;;;;;;16.89;83.54;98223.03;5031276;28;20216;-73
2023/06/29 00:19:07;;;;;;;6.07;4.50;;;;;;;16.88;83.80;98221.34;5031006;28;20738;-74
2023/06/29 00:21:35;;;;;;;6.07;4.30;;;;;;;16.89;83.36;98217.69;5031407;28;20219;-73
2023/06/29 00:24:02;;;;;;;5.10;4.57;;;;;;;16.85;83.57;98218.13;5031161;28;20561;-74
2023/06/29 00:26:30;;;;;;;5.37;4.60;;;;;;;16.77;83.94;98218.84;5030978;28;20219;-73
2023/06/29 00:28:56;;;;;;;5.33;4.83;;;;;;;16.70;84.18;98212.38;5030919;28;20788;-73
2023/06/29 00:31:24;;;;;;;6.00;4.80;;;;;;;16.64;84.83;98215.63;5030975;28;20216;-73
2023/06/29 00:33:50;;;;;;;5.80;4.40;;;;;;;16.63;84.42;98211.28;5031196;28;20209;-72
2023/06/29 00:36:17;;;;;;;6.53;4.43;;;;;;;16.63;84.23;98211.28;5031078;28;20234;-72
2023/06/29 00:38:45;;;;;;;5.77;4.70;;;;;;;16.63;84.53;98208.59;5030958;28;20241;-73
2023/06/29 00:41:11;;;;;;;4.90;4.40;;;;;;;16.61;84.30;98207.91;5030798;28;20209;-73
2023/06/29 00:43:38;;;;;;;4.67;4.27;;;;;;;16.59;84.32;98209.84;5031363;28;20208;-73
2023/06/29 00:46:07;;;;;;;4.30;3.90;;;;;;;16.53;84.45;98198.91;5031220;28;20568;-73
2023/06/29 00:48:34;;;;;;;4.47;4.07;;;;;;;16.48;84.59;98199.34;5031220;28;20315;-73
2023/06/29 00:51:01;;;;;;;5.53;4.33;;;;;;;16.45;84.21;98194.28;5031269;28;20212;-73
2023/06/29 00:53:28;;;;;;;4.33;3.93;;;;;;;16.44;84.44;98194.41;5030931;28;20208;-73
2023/06/29 00:55:56;;;;;;;5.00;4.50;;;;;;;16.37;85.37;98194.13;5031039;28;20212;-73
2023/06/29 00:58:23;;;;;;;6.07;4.63;;;;;;;16.36;85.26;98191.59;5034829;28;20606;-73
2023/06/29 01:00:50;;;;;;;4.50;4.03;;;;;;;16.33;85.56;98198.03;5033987;28;20327;-73
2023/06/29 01:03:17;;;;;;;4.47;4.07;;;;;;;16.31;85.59;98193.81;5034746;28;20213;-73
2023/06/29 01:05:45;;;;;;;5.80;4.30;;;;;;;16.22;86.08;98192.84;5034760;28;20208;-73
2023/06/29 01:08:17;;;;;;;5.07;4.57;;;;;;;16.19;86.10;98189.59;5034595;28;20232;-73
2023/06/29 01:10:46;;;;;;;8.57;4.83;;;;;;;16.10;86.60;98185.94;5034447;28;20406;-73
2023/06/29 01:13:17;;;;;;;5.53;4.73;;;;;;;16.08;86.85;98193.25;5034757;28;20563;-73
2023/06/29 01:15:44;;;;;;;4.97;4.43;;;;;;;16.07;86.69;98181.88;5034727;28;20223;-73
2023/06/29 01:18:13;;;;;;;6.83;4.37;;;;;;;16.03;86.84;98184.81;5034420;28;20277;-72
2023/06/29 01:20:40;;;;;;;5.43;4.43;;;;;;;16.00;86.94;98186.91;5034207;28;20213;-72
2023/06/29 01:23:11;;;;;;;5.17;4.00;;;;;;;15.94;87.42;98175.97;5034412;28;20675;-72
2023/06/29 01:25:40;;;;;;;5.47;4.70;;;;;;;15.93;87.55;98182.28;5034347;28;20205;-71
2023/06/29 01:28:07;;;;;;;4.90;4.50;;;;;;;15.89;87.92;98180.88;5034294;28;20204;-74
2023/06/29 01:30:39;;;;;;;5.07;4.57;;;;;;;15.87;88.24;98177.50;5034043;28;20213;-73
2023/06/29 01:33:06;;;;;;;4.80;4.37;;;;;;;15.85;88.44;98179.47;5035166;28;20282;-73
2023/06/29 01:35:33;;;;;;;6.13;4.50;;;;;;;15.83;87.88;98171.59;5036096;28;20224;-73
2023/06/29 01:38:04;;;;;;;5.00;4.50;;;;;;;15.78;88.04;98175.66;5038737;28;20216;-72
2023/06/29 01:40:33;;;;;;;4.60;4.20;;;;;;;15.77;88.09;98173.97;5039870;28;20264;-72
2023/06/29 01:43:01;;;;;;;4.60;4.10;;;;;;;15.74;88.78;98176.91;5036289;28;20220;-73
2023/06/29 01:45:28;;;;;;;4.90;4.33;;;;;;;15.75;88.92;98170.59;5033907;28;20314;-72
2023/06/29 01:47:56;;;;;;;4.70;4.30;;;;;;;15.69;89.62;98174.66;5034018;28;20226;-73
2023/06/29 01:50:23;;;;;;;4.77;4.27;;;;;;;15.69;89.16;98176.47;5033772;28;20208;-73
2023/06/29 01:52:50;;;;;;;4.97;4.30;;;;;;;15.67;89.50;98165.09;5033995;28;20208;-72
2023/06/29 01:55:16;;;;;;;5.00;4.30;;;;;;;15.66;89.87;98168.75;5033696;28;20209;-72
2023/06/29 01:57:43;;;;;;;3.70;3.40;;;;;;;15.58;89.62;98161.44;5033807;28;20231;-73
2023/06/29 02:00:12;;;;;;;4.27;3.90;;;;;;;15.53;90.34;98171.66;5033157;28;20243;-74
2023/06/29 02:02:39;;;;;;;5.70;4.40;;;;;;;15.48;90.89;98173.06;5034069;28;20586;-73
2023/06/29 02:05:06;;;;;;;6.47;4.60;;;;;;;15.47;91.84;98164.19;5033582;28;20213;-73
2023/06/29 02:07:33;;;;;;;5.00;4.60;;;;;;;15.51;92.02;98175.47;5033003;28;20209;-72
2023/06/29 02:10:00;;;;;;;6.23;4.77;;;;;;;15.49;92.54;98164.94;5032496;28;20224;-73
2023/06/29 02:12:26;;;;;;;6.23;4.50;;;;;;;15.50;92.50;98163.94;5033333;28;20251;-74
2023/06/29 02:14:53;;;;;;;5.00;4.50;;;;;;;15.51;92.27;98159.47;5033283;28;20239;-73
2023/06/29 02:17:20;;;;;;;5.30;4.80;;;;;;;15.50;92.17;98157.75;5033403;28;20215;-73
2023/06/29 02:19:47;;;;;;;6.70;4.70;;;;;;;15.49;91.96;98162.28;5033029;28;20695;-72
2023/06/29 02:22:13;;;;;;;6.13;4.53;;;;;;;15.49;92.06;98151.63;5033314;28;20240;-73
2023/06/29 02:24:40;;;;;;;5.43;4.90;;;;;;;15.46;92.56;98156.38;5033178;28;20237;-73
2023/06/29 02:27:06;;;;;;;5.07;4.30;;;;;;;15.47;92.67;98150.88;5033093;28;20239;-73
2023/06/29 02:29:34;;;;;;;5.27;4.70;;;;;;;15.41;92.83;98150.59;5032799;28;20572;-73
2023/06/29 02:32:00;;;;;;;5.47;4.97;;;;;;;15.40;92.91;98148.91;5033051;28;20215;-74
2023/06/29 02:34:29;;;;;;;5.30;4.80;;;;;;;15.38;92.70;98148.19;5033025;28;20208;-73
2023/06/29 02:36:56;;;;;;;4.93;4.47;;;;;;;15.31;93.13;98147.00;5032966;28;20255;-73
2023/06/29 02:39:22;;;;;;;6.03;5.00;;;;;;;15.25;93.61;98144.91;5032431;28;20240;-73
2023/06/29 02:41:49;;;;;;;5.63;4.80;;;;;;;15.18;94.21;98141.94;5032779;28;20209;-73
2023/06/29 02:44:15;;;;;;;7.00;5.10;;;;;;;15.16;95.03;98141.22;5032779;28;20220;-73
2023/06/29 02:46:42;;;;;;;7.00;5.27;;;;;;;15.13;95.17;98143.31;5032675;28;20718;-73
2023/06/29 02:49:08;;;;;;;5.43;4.63;;;;;;;15.07;95.00;98138.50;5032709;28;20228;-75
2023/06/29 02:51:36;;;;;;;6.20;4.93;;;;;;;15.00;95.23;98140.88;5032777;28;20204;-74
2023/06/29 02:54:03;;;;;;;5.80;5.00;;;;;;;14.96;95.67;98135.97;5032661;28;20687;-74
2023/06/29 02:56:29;;;;;;;6.00;5.23;;;;;;;14.89;95.79;98143.63;5032481;28;20204;-74
2023/06/29 02:58:56;;;;;;;5.40;4.90;;;;;;;14.85;95.88;98144.84;5051688;22;20243;-76
2023/06/29 03:01:22;;;;;;;5.10;4.67;;;;;;;14.83;95.70;98141.50;5051650;28;20211;-76
2023/06/29 03:03:49;;;;;;;5.07;4.67;;;;;;;14.85;96.09;98139.53;5052272;28;20204;-76
2023/06/29 03:06:15;;;;;;;6.00;4.70;;;;;;;14.83;95.88;98140.63;5052088;28;20690;-76
2023/06/29 03:08:43;;;;;;;5.40;4.90;;;;;;;14.77;95.49;98142.00;5051918;28;20236;-76
2023/06/29 03:11:09;;;;;;;5.13;4.63;;;;;;;14.73;95.53;98135.25;5051736;28;20208;-76
2023/06/29 03:13:36;;;;;;;5.07;4.57;;;;;;;14.71;95.84;98131.03;5052180;28;20682;-76
2023/06/29 03:16:02;;;;;;;4.93;4.47;;;;;;;14.67;96.32;98140.28;5051885;28;20205;-76
2023/06/29 03:18:29;;;;;;;5.47;4.80;;;;;;;14.65;96.30;98135.09;5051867;28;20215;-77
2023/06/29 03:20:55;;;;;;;5.40;4.90;;;;;;;14.60;97.22;98144.44;5051809;28;20251;-76
2023/06/29 03:23:22;;;;;;;5.67;4.73;;;;;;;14.62;98.06;98135.38;5051755;28;20219;-76
2023/06/29 03:25:50;;;;;;;5.50;5.00;;;;;;;14.60;97.78;98136.47;5051779;28;20216;-76
2023/06/29 03:28:16;;;;;;;5.00;4.43;;;;;;;14.61;97.85;98132.81;5051787;28;20212;-77
2023/06/29 03:30:43;;;;;;;5.97;4.83;;;;;;;14.58;97.80;98138.38;5051490;28;20211;-77
2023/06/29 03:33:09;;;;;;;5.10;4.60;;;;;;;14.57;98.01;98129.59;5051725;28;20212;-76
2023/06/29 03:35:36;;;;;;;5.83;5.17;;;;;;;14.55;98.55;98131.50;5051718;28;20235;-78
2023/06/29 03:38:07;;;;;;;4.80;4.27;;;;;;;14.60;98.35;98139.13;5051544;28;20212;-77
2023/06/29 03:40:33;;;;;;;5.70;5.10;;;;;;;14.57;98.92;98144.69;5051576;28;20623;-77
2023/06/29 03:43:01;;;;;;;5.57;5.00;;;;;;;14.60;99.27;98134.63;5051533;28;20212;-78
2023/06/29 03:45:28;;;;;;;5.67;5.17;;;;;;;14.61;98.77;98135.47;5051512;28;20208;-78
2023/06/29 03:47:54;;;;;;;5.67;5.03;;;;;;;14.63;99.06;98139.69;5051486;28;20306;-77
2023/06/29 03:50:21;;;;;;;5.70;4.80;;;;;;;14.63;98.76;98133.53;5051057;28;20228;-77
2023/06/29 03:52:47;;;;;;;4.93;4.37;;;;;;;14.66;98.34;98133.28;5051264;28;20575;-78
2023/06/29 03:55:14;;;;;;;4.93;4.53;;;;;;;14.65;98.30;98132.41;5051435;28;20242;-78
2023/06/29 03:57:40;;;;;;;5.90;4.53;;;;;;;14.64;98.76;98129.88;5051359;28;20219;-77
2023/06/29 04:00:09;;;;;;;5.30;4.80;;;;;;;14.67;98.65;98130.47;5050633;28;20235;-78
2023/06/29 04:02:36;;;;;;;5.03;4.63;;;;;;;14.71;98.69;98137.22;5051212;28;20251;-78
2023/06/29 04:05:03;;;;;;;4.87;4.47;;;;;;;14.75;98.18;98137.78;5051087;28;20215;-78
2023/06/29 04:07:29;;;;;;;5.70;5.07;;;;;;;14.82;97.83;98122.97;5051108;28;20271;-78
2023/06/29 04:09:56;;;;;;;5.73;4.93;;;;;;;14.85;97.54;98128.88;5050905;28;20220;-78
2023/06/29 04:12:22;;;;;;;5.50;4.93;;;;;;;14.88;97.41;98127.78;5051200;28;20207;-78
2023/06/29 04:14:49;;;;;;;6.60;4.90;;;;;;;14.91;97.43;98132.84;5051086;28;20648;-76
2023/06/29 04:17:17;;;;;;;5.87;4.93;;;;;;;14.95;96.99;98126.25;5050934;28;20301;-76
2023/06/29 04:19:43;;;;;;;5.43;4.93;;;;;;;14.97;97.42;98121.69;5050429;28;20236;-76
2023/06/29 04:22:09;;;;;;;7.07;5.00;;;;;;;15.04;97.67;98117.50;5050975;28;20212;-76
2023/06/29 04:24:36;;;;;;;6.00;4.80;;;;;;;15.10;97.26;98115.13;5050953;28;20330;-77
2023/06/29 04:27:02;;;;;;;5.40;4.90;;;;;;;15.15;97.39;98112.09;5051084;28;20807;-76
2023/06/29 04:29:29;;;;;;;6.07;5.30;;;;;;;15.23;97.33;98117.56;5050918;28;20247;-76
2023/06/29 04:31:56;;;;;;;5.40;4.90;;;;;;;15.22;97.29;98113.22;5052662;28;20208;-77
2023/06/29 04:34:24;;;;;;;5.87;5.30;;;;;;;15.26;97.97;98117.28;5054840;28;20634;-77
2023/06/29 04:36:52;;;;;;;6.07;5.47;;;;;;;15.35;97.86;98116.53;5055148;28;20204;-76
2023/06/29 04:39:19;;;;;;;6.73;6.03;;;;;;;15.41;97.68;98118.66;5054401;28;20236;-76
2023/06/29 04:41:46;;;;;;;6.47;5.87;;;;;;;15.50;96.91;98109.81;5054929;28;20212;-77
2023/06/29 04:44:13;;;;;;;6.57;5.90;;;;;;;15.60;97.01;98116.88;5054868;28;20216;-76
2023/06/29 04:46:40;;;;;;;5.87;5.20;;;;;;;15.58;97.39;98113.47;5054863;28;20576;-76
2023/06/29 04:49:07;;;;;;;7.43;6.30;;;;;;;15.66;97.90;98118.13;5054705;28;20231;-76
2023/06/29 04:51:35;;;;;;;5.47;5.07;;;;;;;15.72;97.98;98109.59;5054900;28;20208;-76
2023/06/29 04:54:02;;;;;;;6.87;6.17;;;;;;;15.80;97.35;98112.41;5054826;28;20612;-76
2023/06/29 04:56:29;;;;;;;6.47;5.87;;;;;;;15.84;97.40;98108.47;5054658;28;20208;-76
2023/06/29 04:58:56;;;;;;;7.23;5.87;;;;;;;15.96;97.06;98110.03;5054434;28;20243;-76
2023/06/29 05:01:22;;;;;;;6.43;5.37;;;;;;;16.09;96.54;98109.59;5054159;28;20232;-77
2023/06/29 05:03:49;;;;;;;6.23;5.63;;;;;;;16.35;95.27;98113.38;5054702;28;20219;-73
2023/06/29 05:06:15;;;;;;;7.00;6.00;;;;;;;16.73;92.61;98105.34;5054554;28;20219;-74
2023/06/29 05:08:43;;;;;;;7.63;5.83;;;;;;;17.30;88.53;98105.13;5054314;28;20327;-73
2023/06/29 05:11:10;;;;;;;6.23;5.43;;;;;;;17.98;83.67;98095.72;5054100;28;20208;-73
2023/06/29 05:13:36;;;;;;;5.63;5.13;;;;;;;18.63;79.52;98088.09;5054272;28;20309;-73
2023/06/29 05:16:03;;;;;;;6.70;5.27;;;;;;;19.24;75.30;98075.41;5054225;28;20475;-73
2023/06/29 05:18:30;;;;;;;5.57;4.53;;;;;;;19.84;72.51;98074.28;5054298;28;20219;-73
2023/06/29 05:20:57;;;;;;;6.43;4.73;;;;;;;20.38;69.82;98065.63;5053765;28;20593;-75
2023/06/29 05:23:24;;;;;;;5.37;4.47;;;;;;;20.83;67.00;98065.88;5054183;28;20208;-76
2023/06/29 05:25:51;;;;;;;6.03;5.40;;;;;;;21.10;63.83;98046.69;5054170;28;20216;-74
2023/06/29 05:28:18;;;;;;;6.33;4.77;;;;;;;21.45;62.92;98050.75;5054106;28;20214;-74
2023/06/29 05:30:45;;;;;;;4.60;4.20;;;;;;;21.79;60.86;98044.03;5053837;28;20311;-74
2023/06/29 05:33:11;;;;;;;5.10;4.60;;;;;;;22.10;59.81;98041.28;5054066;28;20212;-74
2023/06/29 05:35:38;;;;;;;7.40;5.17;;;;;;;22.37;58.36;98036.19;5053942;28;20586;-73
2023/06/29 05:38:04;;;;;;;10.43;4.97;;;;;;;22.60;57.11;98036.16;5053741;28;20208;-73
2023/06/29 05:40:32;;;;;;;7.83;5.10;;;;;;;22.77;56.30;98035.84;5053284;28;20238;-73
2023/06/29 05:43:00;;;;;;;8.93;4.97;;;;;;;22.83;53.68;98029.72;5053465;28;20204;-73
2023/06/29 05:45:26;;;;;;;5.93;4.57;;;;;;;23.11;54.35;98028.03;5053874;28;20216;-73
2023/06/29 05:47:54;;;;;;;4.90;3.90;;;;;;;23.37;52.82;98024.88;5053819;28;20218;-73
2023/06/29 05:50:21;;;;;;;5.50;3.90;;;;;;;23.52;52.04;98023.81;5053109;28;20228;-75
2023/06/29 05:52:48;;;;;;;6.00;4.10;;;;;;;23.70;51.40;98010.75;5053685;28;20282;-73
2023/06/29 05:55:14;;;;;;;4.63;3.50;;;;;;;23.72;50.70;98000.59;5053565;28;20663;-73
2023/06/29 05:57:41;;;;;;;4.30;3.23;;;;;;;23.94;50.56;98005.03;5050458;28;20267;-73
2023/06/29 06:00:12;;;;;;;4.37;3.87;;;;;;;24.04;49.98;98000.16;5052223;28;20228;-73
2023/06/29 06:02:39;;;;;;;3.90;3.27;;;;;;;24.28;50.22;98010.56;5052810;28;20246;-72
2023/06/29 06:05:07;;;;;;;4.57;3.67;;;;;;;24.53;49.56;98010.94;5053326;28;20216;-72
2023/06/29 06:07:34;;;;;;;5.13;3.10;;;;;;;24.82;49.35;98017.00;5060943;28;20199;-74
2023/06/29 06:10:00;;;;;;;4.07;3.40;;;;;;;24.97;49.00;98017.75;5072762;28;20246;-73
2023/06/29 06:12:27;;;;;;;3.93;3.00;;;;;;;25.08;48.24;98011.78;5072806;28;20212;-73
2023/06/29 06:14:53;;;;;;;3.60;2.90;;;;;;;25.21;47.68;98005.59;5073001;28;20203;-73
2023/06/29 06:17:21;;;;;;;3.77;3.17;;;;;;;25.38;47.31;98013.22;5072878;28;20208;-73
2023/06/29 06:19:48;;;;;;;4.73;3.30;;;;;;;25.51;47.13;98005.16;5072528;28;20227;-73
2023/06/29 06:22:14;;;;;;;3.30;2.80;;;;;;;25.76;45.88;98000.88;5073041;28;20211;-72
2023/06/29 06:24:41;;;;;;;3.33;3.00;;;;;;;25.86;46.69;98004.03;5072928;28;20207;-73
2023/06/29 06:27:07;;;;;;;6.13;3.57;;;;;;;25.88;45.17;97977.56;5072745;28;20203;-72
2023/06/29 06:29:34;;;;;;;4.72;3.58;;;;;;;25.94;45.34;97995.72;5072586;28;20686;-73
2023/06/29 06:32:01;;;;;;;4.23;3.20;;;;;;;26.11;45.95;97998.88;5072840;28;20207;-72
2023/06/29 06:34:30;;;;;;;4.20;3.20;;;;;;;26.20;45.07;97997.66;5072446;28;20211;-72
2023/06/29 06:36:58;;;;;;;4.17;3.00;;;;;;;26.26;44.93;97994.94;5072462;28;20256;-72
2023/06/29 06:39:24;;;;;;;4.90;3.80;;;;;;;26.36;45.05;97998.06;5072031;28;20227;-72
2023/06/29 06:41:51;;;;;;;4.82;3.20;;;;;;;26.34;45.00;97993.91;5072259;28;20230;-72
2023/06/29 06:44:17;;;;;;;3.85;2.97;;;;;;;26.42;44.78;97991.81;5072469;28;20212;-72
2023/06/29 06:46:44;;;;;;;6.03;3.45;;;;;;;26.35;44.82;97996.41;5072568;28;20285;-71
2023/06/29 06:49:10;;;;;;;3.97;3.28;;;;;;;26.45;44.39;97985.97;5072137;28;20227;-73
2023/06/29 06:51:38;;;;;;;3.63;3.03;;;;;;;26.55;43.96;97981.00;5072537;28;20207;-77
2023/06/29 06:54:05;;;;;;;4.15;3.30;;;;;;;26.59;44.63;97993.06;5071626;28;20215;-76
2023/06/29 06:56:31;;;;;;;5.55;3.22;;;;;;;26.57;43.24;97983.50;5072283;28;20204;-78
2023/06/29 06:58:58;;;;;;;3.53;3.00;;;;;;;26.54;43.06;97981.19;5072031;28;20285;-77
2023/06/29 07:01:26;;;;;;;5.07;3.13;;;;;;;26.71;43.44;97991.41;5072009;28;20231;-75
2023/06/29 07:03:53;;;;;;;4.20;3.17;;;;;;;26.76;43.41;97983.47;5072009;28;20713;-76
2023/06/29 07:06:19;;;;;;;3.30;2.95;;;;;;;26.74;43.37;97974.72;5071736;28;20214;-76
2023/06/29 07:08:47;;;;;;;3.80;2.90;;;;;;;26.63;43.12;97971.81;5053917;28;20356;-76
2023/06/29 07:11:14;;;;;;;3.50;2.97;;;;;;;26.45;43.32;97975.13;5065017;28;20204;-76
2023/06/29 07:13:40;;;;;;;4.70;2.90;;;;;;;26.17;43.56;97974.50;5058034;28;20208;-76
2023/06/29 07:16:06;;;;;;;5.00;2.90;;;;;;;25.85;45.07;97986.09;5051850;28;20216;-76
2023/06/29 07:18:35;;;;;;;3.90;2.90;;;;;;;25.51;45.02;97975.38;5050772;28;20818;-78
2023/06/29 07:21:02;;;;;;;4.50;3.40;;;;;;;25.36;45.38;97977.41;5051251;28;20232;-78
2023/06/29 07:23:28;;;;;;;2.90;2.60;;;;;;;25.39;44.78;97971.59;5051035;28;20440;-78
2023/06/29 07:25:56;;;;;;;4.30;2.55;;;;;;;25.33;45.41;97977.81;5051693;28;20565;-77
2023/06/29 07:28:23;;;;;;;4.57;3.10;;;;;;;25.30;45.54;97993.63;5051579;28;20208;-81
2023/06/29 07:30:51;;;;;;;4.60;2.85;;;;;;;25.19;46.23;97984.19;5051205;28;20219;-82
2023/06/29 07:33:17;;;;;;;3.73;3.00;;;;;;;25.04;46.78;97988.88;5051353;28;20215;-81
2023/06/29 07:35:44;;;;;;;3.40;2.72;;;;;;;25.00;46.86;97987.59;5051210;28;20212;-83
2023/06/29 07:38:10;;;;;;;3.10;2.80;;;;;;;24.95;46.86;97990.09;5051518;28;20231;-79
2023/06/29 07:40:37;;;;;;;2.75;2.38;;;;;;;24.89;46.60;97988.19;5050924;28;20240;-78
2023/06/29 07:43:05;;;;;;;4.07;2.88;;;;;;;24.96;47.37;97989.03;5049945;28;20709;-81
2023/06/29 07:45:31;;;;;;;4.35;2.97;;;;;;;25.10;47.08;97988.06;5049478;28;20216;-81
2023/06/29 07:47:58;;;;;;;3.65;2.67;;;;;;;25.19;47.34;97981.47;5049958;28;20223;-81
2023/06/29 07:50:24;;;;;;;3.30;2.77;;;;;;;25.11;46.21;97970.81;5048454;28;20242;-80
2023/06/29 07:52:51;;;;;;;4.78;2.67;;;;;;;25.09;45.89;97974.75;5049918;28;20208;-85
2023/06/29 07:55:18;;;;;;;3.83;2.75;;;;;;;25.03;46.77;97980.94;5050599;28;20212;-79
2023/06/29 07:57:44;;;;;;;3.95;2.72;;;;;;;25.14;46.88;97977.69;5050552;28;20212;-80
2023/06/29 08:00:13;;;;;;;3.78;3.00;;;;;;;25.30;45.56;97970.09;5049837;28;20235;-79
2023/06/29 08:02:40;;;;;;;4.93;2.80;;;;;;;25.50;45.48;97968.31;5049785;28;20238;-80
2023/06/29 08:05:07;;;;;;;3.17;2.88;;;;;;;25.67;45.97;97969.59;5049861;28;20216;-78
2023/06/29 08:07:34;;;;;;;2.73;2.53;;;;;;;25.77;45.90;97969.19;5048880;28;20866;-81
2023/06/29 08:10:01;;;;;;;3.77;3.00;;;;;;;25.71;44.86;97962.72;5049909;28;20232;-80
2023/06/29 08:12:27;;;;;;;2.80;2.58;;;;;;;25.76;46.00;97972.94;5050069;28;20238;-82
2023/06/29 08:14:54;;;;;;;4.67;2.80;;;;;;;25.75;45.44;97966.72;5049785;28;20212;-82
2023/06/29 08:17:21;;;;;;;3.60;2.58;;;;;;;25.84;45.39;97968.16;5049664;28;20212;-81
2023/06/29 08:19:48;;;;;;;5.07;2.90;;;;;;;26.02;44.72;97957.59;5049974;28;20239;-81
2023/06/29 08:22:15;;;;;;;2.60;2.33;;;;;;;26.06;44.86;97947.19;5050081;28;20238;-81
2023/06/29 08:24:41;;;;;;;2.78;2.50;;;;;;;26.23;43.20;97953.88;5061594;28;20685;-81
2023/06/29 08:27:07;;;;;;;2.88;2.40;;;;;;;26.37;43.11;97947.41;5069802;28;20336;-81
2023/06/29 08:29:34;;;;;;;2.88;2.22;;;;;;;26.52;42.73;97946.13;5069367;28;20224;-81
2023/06/29 08:32:01;;;;;;;3.42;2.78;;;;;;;26.61;42.19;97942.22;5069945;28;20212;-82
2023/06/29 08:34:29;;;;;;;3.00;2.33;;;;;;;26.62;41.16;97922.19;5069755;28;20309;-81
2023/06/29 08:36:56;;;;;;;4.45;2.20;;;;;;;26.60;41.14;97929.69;5070397;28;20230;-81
2023/06/29 08:39:22;;;;;;;4.15;2.30;;;;;;;26.59;41.91;97928.00;5069258;28;20227;-81
2023/06/29 08:41:49;;;;;;;4.50;2.40;;;;;;;26.50;41.79;97928.41;5069806;28;20616;-82
2023/06/29 08:44:15;;;;;;;3.85;2.10;;;;;;;26.44;42.64;97940.94;5069554;28;20214;-81
2023/06/29 08:46:43;;;;;;;2.13;2.03;;;;;;;26.44;42.70;97929.25;5069855;28;20294;-82
2023/06/29 08:49:10;;;;;;;2.60;2.33;;;;;;;26.36;42.64;97927.63;5069650;28;20227;-81
2023/06/29 08:51:41;;;;;;;1.90;1.80;;;;;;;26.34;42.35;97920.72;5069312;28;20199;-81
2023/06/29 08:54:08;;;;;;;2.92;2.10;;;;;;;26.30;42.82;97922.19;5069622;28;20226;-81
2023/06/29 08:56:35;;;;;;;2.58;2.10;;;;;;;26.40;41.85;97923.41;5069529;28;20207;-81
2023/06/29 08:59:02;;;;;;;3.05;1.73;;;;;;;26.67;41.93;97916.97;5082270;22;20220;-76
2023/06/29 09:01:29;;;;;;;2.50;2.30;;;;;;;26.93;41.27;97908.75;5047999;28;20323;-75
2023/06/29 09:03:56;;;;;;;3.00;2.10;;;;;;;27.12;41.59;97913.25;5049098;28;20203;-75
2023/06/29 09:06:23;;;;;;;2.83;2.33;;;;;;;27.30;41.29;97918.84;5049530;28;20591;-75
2023/06/29 09:08:51;;;;;;;3.42;2.38;;;;;;;27.46;40.11;97902.06;5049737;28;20212;-77
2023/06/29 09:11:18;;;;;;;3.15;2.25;;;;;;;27.61;39.53;97894.44;5049299;28;20212;-75
2023/06/29 09:13:46;;;;;;;2.42;2.10;;;;;;;27.65;39.73;97898.41;5049592;28;20674;-76
2023/06/29 09:16:14;;;;;;;3.95;2.30;;;;;;;27.73;39.71;97901.69;5049763;28;20209;-75
2023/06/29 09:18:41;;;;;;;3.80;2.50;;;;;;;27.88;40.97;97920.44;5051702;28;20212;-75
2023/06/29 09:21:08;;;;;;;2.67;2.33;;;;;;;28.07;40.02;97919.44;5053564;28;20594;-75
2023/06/29 09:23:35;;;;;;;3.17;2.38;;;;;;;28.18;40.11;97903.25;5061611;28;20298;-75
2023/06/29 09:26:04;;;;;;;3.88;2.67;;;;;;;28.17;39.26;97900.75;5053179;28;20219;-75
2023/06/29 09:28:35;;;;;;;3.90;2.42;;;;;;;28.12;39.79;97906.03;5053446;28;20208;-75
2023/06/29 09:31:07;;;;;;;3.22;2.15;;;;;;;28.06;38.20;97880.56;5052852;28;20224;-75
2023/06/29 09:33:33;;;;;;;3.53;2.00;;;;;;;28.31;37.92;97883.28;5052904;28;20216;-75
2023/06/29 09:36:06;;;;;;;2.58;1.80;;;;;;;28.52;37.57;97885.59;5050826;28;20208;-75
2023/06/29 09:38:34;;;;;;;3.35;1.90;;;;;;;28.63;37.52;97888.44;5050361;28;20208;-76
2023/06/29 09:41:03;;;;;;;3.33;2.20;;;;;;;28.63;37.41;97879.44;5049561;28;20737;-75
2023/06/29 09:43:30;;;;;;;3.03;2.13;;;;;;;28.63;37.74;97882.16;5051930;28;20258;-75
2023/06/29 09:46:06;;;;;;;2.25;1.80;;;;;;;28.75;36.26;97880.34;5052935;28;20235;-76
2023/06/29 09:48:32;;;;;;;2.38;1.92;;;;;;;28.86;36.48;97871.44;5053199;28;20270;-75
2023/06/29 09:50:59;;;;;;;3.47;2.10;;;;;;;28.99;35.04;97854.97;5052043;28;20343;-79
2023/06/29 09:53:30;;;;;;;5.00;2.22;;;;;;;28.99;35.51;97866.66;5052380;28;20670;-75
2023/06/29 09:55:58;;;;;;;4.03;2.30;;;;;;;29.02;36.11;97865.38;5052401;28;20556;-75
2023/06/29 09:58:27;;;;;;;2.92;2.20;;;;;;;29.13;36.15;97867.34;5052429;28;20698;-74
2023/06/29 10:00:58;;;;;;;2.67;2.10;;;;;;;29.16;35.50;97856.03;5047586;28;20246;-74
2023/06/29 10:03:24;;;;;;;2.92;2.10;;;;;;;29.20;35.53;97857.19;5053059;28;20210;-75
2023/06/29 10:05:52;;;;;;;3.25;2.03;;;;;;;29.33;35.13;97857.84;5053308;28;20230;-76
2023/06/29 10:08:21;;;;;;;2.90;2.45;;;;;;;29.26;34.92;97850.84;5053474;28;20674;-77
2023/06/29 10:10:49;;;;;;;4.40;2.42;;;;;;;29.40;36.49;97864.03;5052893;28;20323;-75
2023/06/29 10:13:17;;;;;;;3.28;1.88;;;;;;;29.50;36.82;97864.31;5053342;28;20683;-76
2023/06/29 10:15:46;;;;;;;2.80;2.50;;;;;;;29.52;34.21;97847.75;5053281;28;20219;-75
2023/06/29 10:18:18;;;;;;;2.67;2.13;;;;;;;29.33;35.00;97851.56;5053284;28;20215;-77
2023/06/29 10:20:45;;;;;;;2.15;1.88;;;;;;;29.18;37.15;97871.06;5052729;28;20718;-76
2023/06/29 10:23:15;;;;;;;2.10;1.90;;;;;;;29.11;36.82;97859.41;5053085;28;20235;-76
2023/06/29 10:25:44;;;;;;;3.28;2.25;;;;;;;28.99;36.36;97850.34;5053168;28;20208;-76
2023/06/29 10:28:13;;;;;;;2.63;2.15;;;;;;;28.92;36.69;97863.19;5053046;28;20209;-75
2023/06/29 10:30:49;;;;;;;5.35;2.30;;;;;;;28.67;37.14;97851.53;5051431;28;20255;-76
2023/06/29 10:33:21;;;;;;;2.97;2.13;;;;;;;28.59;37.71;97860.00;5053039;28;20200;-78
2023/06/29 10:35:52;;;;;;;2.35;2.15;;;;;;;28.62;37.44;97854.09;5052643;28;20216;-76
2023/06/29 10:38:19;;;;;;;2.38;2.17;;;;;;;28.74;36.10;97840.59;5052662;28;20424;-80
2023/06/29 10:40:49;;;;;;;2.65;1.95;;;;;;;28.71;36.29;97832.88;5047750;28;20228;-78
2023/06/29 10:43:16;;;;;;;2.22;2.03;;;;;;;28.83;37.24;97842.78;5049094;28;20234;-77
2023/06/29 10:45:43;;;;;;;3.03;2.00;;;;;;;28.98;37.06;97840.53;5049283;28;20212;-79
2023/06/29 10:48:16;;;;;;;2.25;2.00;;;;;;;29.10;36.52;97829.72;5049230;28;20295;-78
2023/06/29 10:50:45;;;;;;;4.28;2.72;;;;;;;29.23;36.49;97829.53;5050955;28;20235;-77
2023/06/29 10:53:13;;;;;;;3.45;2.40;;;;;;;29.36;36.87;97834.78;5051543;28;20291;-77
2023/06/29 10:55:42;;;;;;;2.78;2.42;;;;;;;29.56;35.41;97817.13;5051647;28;20215;-77
2023/06/29 10:58:15;;;;;;;2.20;2.00;;;;;;;29.79;35.95;97825.34;5051932;28;20208;-77
2023/06/29 11:00:42;;;;;;;3.17;2.25;;;;;;;30.00;35.17;97826.66;5050774;28;20240;-77
2023/06/29 11:03:11;;;;;;;2.13;1.92;;;;;;;30.12;34.14;97803.00;5051639;28;20248;-77
2023/06/29 11:05:38;;;;;;;2.70;2.28;;;;;;;30.06;35.11;97821.13;5051101;28;20215;-78
2023/06/29 11:08:06;;;;;;;2.45;2.10;;;;;;;30.13;35.39;97821.03;5051316;28;20212;-77
2023/06/29 11:10:33;;;;;;;2.70;2.30;;;;;;;30.09;34.08;97804.28;5050910;28;20289;-77
2023/06/29 11:13:00;;;;;;;3.15;2.35;;;;;;;30.12;34.66;97803.00;5051449;28;20205;-76
2023/06/29 11:15:28;;;;;;;4.65;2.78;;;;;;;30.16;34.21;97794.13;5051491;28;20212;-76
2023/06/29 11:17:54;;;;;;;3.42;2.40;;;;;;;30.25;34.35;97803.59;5051008;28;20208;-75
2023/06/29 11:20:28;;;;;;;2.97;2.67;;;;;;;30.11;35.22;97804.06;5050606;28;20598;-75
2023/06/29 11:22:54;;;;;;;3.47;2.67;;;;;;;30.11;35.67;97807.63;5050877;28;20232;-75
2023/06/29 11:25:21;;;;;;;3.78;2.78;;;;;;;30.29;34.85;97801.22;5051385;28;20582;-75
2023/06/29 11:27:47;;;;;;;2.90;2.60;;;;;;;30.34;34.21;97802.19;5051100;28;20208;-75
2023/06/29 11:30:14;;;;;;;3.40;2.80;;;;;;;30.40;34.20;97793.06;5050472;28;20606;-76
2023/06/29 11:32:41;;;;;;;3.63;2.75;;;;;;;30.25;35.00;97792.69;5051106;28;20587;-76
2023/06/29 11:35:09;;;;;;;3.20;2.90;;;;;;;30.25;33.83;97775.53;5050714;28;20532;-75